createdAt,value
2023-04-16T00:01:16.696Z,2.35
2023-04-16T00:03:43.420Z,2.35
2023-04-16T00:06:11.618Z,2.30
2023-04-16T00:08:38.349Z,2.38
2023-04-16T00:11:05.966Z,2.08
2023-04-16T00:13:32.396Z,2.10
2023-04-16T00:15:59.184Z,2.35
2023-04-16T00:18:26.273Z,2.15
2023-04-16T00:20:53.510Z,2.17
2023-04-16T00:23:20.133Z,2.35
2023-04-16T00:25:46.688Z,2.55
2023-04-16T00:28:13.171Z,2.47
2023-04-16T00:30:39.985Z,2.08
2023-04-16T00:33:06.690Z,2.30
2023-04-16T00:35:33.129Z,2.60
2023-04-16T00:37:59.570Z,2.10
2023-04-16T00:40:29.934Z,2.17
2023-04-16T00:42:56.431Z,2.28
2023-04-16T00:45:22.887Z,2.40
2023-04-16T00:47:49.910Z,2.20
2023-04-16T00:50:17.581Z,2.33
2023-04-16T00:52:44.101Z,2.75
2023-04-16T00:55:13.321Z,2.65
2023-04-16T00:57:39.889Z,3.13
2023-04-16T01:00:06.952Z,3.05
2023-04-16T01:02:34.566Z,2.40
2023-04-16T01:05:01.963Z,3.03
2023-04-16T01:07:28.545Z,2.63
2023-04-16T01:09:55.184Z,3.33
2023-04-16T01:12:21.668Z,3.05
2023-04-16T01:14:48.388Z,3.17
2023-04-16T01:17:15.052Z,3.17
2023-04-16T01:19:42.524Z,3.28
2023-04-16T01:22:09.045Z,3.22
2023-04-16T01:24:36.446Z,4.00
2023-04-16T01:27:02.946Z,3.92
2023-04-16T01:29:29.446Z,3.88
2023-04-16T01:31:56.189Z,3.95
2023-04-16T01:34:22.996Z,4.13
2023-04-16T01:36:49.495Z,4.00
2023-04-16T01:39:16.481Z,3.85
2023-04-16T01:41:43.636Z,4.47
2023-04-16T01:44:10.249Z,4.72
2023-04-16T01:46:37.751Z,3.95
2023-04-16T01:49:04.916Z,4.20
2023-04-16T01:51:32.125Z,3.92
2023-04-16T01:53:58.956Z,4.40
2023-04-16T01:56:25.739Z,3.92
2023-04-16T01:58:52.883Z,4.28
2023-04-16T02:01:19.466Z,4.22
2023-04-16T02:03:46.298Z,4.70
2023-04-16T02:06:12.995Z,4.07
2023-04-16T02:08:39.537Z,4.25
2023-04-16T02:11:05.950Z,4.55
2023-04-16T02:13:32.403Z,4.60
2023-04-16T02:15:59.295Z,4.50
2023-04-16T02:18:25.846Z,4.70
2023-04-16T02:20:52.464Z,5.63
2023-04-16T02:23:18.898Z,5.15
2023-04-16T02:25:46.834Z,5.75
2023-04-16T02:28:15.430Z,5.63
2023-04-16T02:30:42.293Z,5.45
2023-04-16T02:33:10.443Z,5.55
2023-04-16T02:35:37.928Z,5.03
2023-04-16T02:38:05.297Z,6.15
2023-04-16T02:40:32.097Z,5.30
2023-04-16T02:42:58.602Z,6.10
2023-04-16T02:45:25.336Z,4.75
2023-04-16T02:47:51.975Z,6.10
2023-04-16T02:50:18.773Z,5.68
2023-04-16T02:52:45.366Z,5.25
2023-04-16T02:55:11.950Z,5.57
2023-04-16T02:57:38.436Z,5.60
2023-04-16T03:00:05.441Z,6.32
2023-04-16T03:02:31.986Z,5.90
2023-04-16T03:04:58.668Z,6.55
2023-04-16T03:07:25.184Z,6.07
2023-04-16T03:09:51.786Z,5.88
2023-04-16T03:12:18.251Z,6.20
2023-04-16T03:14:44.626Z,5.68
2023-04-16T03:17:11.495Z,5.85
2023-04-16T03:19:37.891Z,5.57
2023-04-16T03:22:04.640Z,5.90
2023-04-16T03:24:31.128Z,6.03
2023-04-16T03:26:58.379Z,6.38
2023-04-16T03:29:26.722Z,6.63
2023-04-16T03:31:53.198Z,6.60
2023-04-16T03:34:19.756Z,6.70
2023-04-16T03:36:46.329Z,6.97
2023-04-16T03:39:12.743Z,6.35
2023-04-16T03:41:39.157Z,6.82
2023-04-16T03:44:05.754Z,6.63
2023-04-16T03:46:32.327Z,6.93
2023-04-16T03:48:58.830Z,7.32
2023-04-16T03:51:26.397Z,6.95
2023-04-16T03:53:52.887Z,7.45
2023-04-16T03:56:19.383Z,7.25
2023-04-16T03:58:45.949Z,7.88
2023-04-16T04:01:12.397Z,7.63
2023-04-16T04:03:38.929Z,7.18
2023-04-16T04:06:09.029Z,7.25
2023-04-16T04:11:01.923Z,6.97
2023-04-16T04:13:28.369Z,6.63
2023-04-16T04:15:54.913Z,6.68
2023-04-16T04:18:21.351Z,6.78
2023-04-16T04:20:47.792Z,8.00
2023-04-16T04:23:14.232Z,7.20
2023-04-16T04:25:40.781Z,7.32
2023-04-16T04:28:07.232Z,7.45
2023-04-16T04:30:35.674Z,8.50
2023-04-16T04:33:02.247Z,7.13
2023-04-16T04:35:28.745Z,8.10
2023-04-16T04:37:55.196Z,6.97
2023-04-16T04:40:21.625Z,6.70
2023-04-16T04:42:48.208Z,7.70
2023-04-16T04:45:14.703Z,6.95
2023-04-16T04:47:41.188Z,7.30
2023-04-16T04:50:08.141Z,7.35
2023-04-16T04:52:34.525Z,8.60
2023-04-16T04:55:01.241Z,8.00
2023-04-16T04:57:27.694Z,8.20
2023-04-16T04:59:54.131Z,7.88
2023-04-16T05:02:20.774Z,8.80
2023-04-16T05:04:47.311Z,8.05
2023-04-16T05:07:13.802Z,7.70
2023-04-16T05:09:42.624Z,8.60
2023-04-16T05:12:09.151Z,8.30
2023-04-16T05:14:36.365Z,7.95
2023-04-16T05:17:03.032Z,9.20
2023-04-16T05:19:32.623Z,8.45
2023-04-16T05:21:59.715Z,8.90
2023-04-16T05:24:29.288Z,8.93
2023-04-16T05:26:57.316Z,8.73
2023-04-16T05:29:24.049Z,8.55
2023-04-16T05:31:50.574Z,8.80
2023-04-16T05:34:17.092Z,9.02
2023-04-16T05:36:43.529Z,9.98
2023-04-16T05:39:10.815Z,8.88
2023-04-16T05:41:37.545Z,9.00
2023-04-16T05:44:04.181Z,9.60
2023-04-16T05:46:31.381Z,8.93
2023-04-16T05:48:57.886Z,9.45
2023-04-16T05:51:26.105Z,9.85
2023-04-16T05:53:52.516Z,9.32
2023-04-16T05:56:19.209Z,8.60
2023-04-16T05:58:45.701Z,10.18
2023-04-16T06:01:12.343Z,8.10
2023-04-16T06:03:38.952Z,9.20
2023-04-16T06:06:05.721Z,10.32
2023-04-16T06:08:32.238Z,9.15
2023-04-16T06:10:58.680Z,8.75
2023-04-16T06:13:25.169Z,8.30
2023-04-16T06:15:51.640Z,9.38
2023-04-16T06:18:18.071Z,9.30
2023-04-16T06:20:44.513Z,9.40
2023-04-16T06:23:11.153Z,8.93
2023-04-16T06:25:37.551Z,9.23
2023-04-16T06:28:04.058Z,9.25
2023-04-16T06:30:30.624Z,9.32
2023-04-16T06:32:57.083Z,9.20
2023-04-16T06:35:23.627Z,9.20
2023-04-16T06:37:50.121Z,8.50
2023-04-16T06:40:16.719Z,8.38
2023-04-16T06:42:44.883Z,8.38
2023-04-16T06:45:12.357Z,8.65
2023-04-16T06:47:38.799Z,8.65
2023-04-16T06:50:06.034Z,9.07
2023-04-16T06:52:32.527Z,9.45
2023-04-16T06:54:58.987Z,9.73
2023-04-16T06:57:25.490Z,10.38
2023-04-16T06:59:51.937Z,9.88
2023-04-16T07:02:18.498Z,10.45
2023-04-16T07:04:44.985Z,9.20
2023-04-16T07:07:11.411Z,10.15
2023-04-16T07:09:37.875Z,9.98
2023-04-16T07:12:04.411Z,9.98
2023-04-16T07:14:31.114Z,10.15
2023-04-16T07:16:57.738Z,11.43
2023-04-16T07:19:24.413Z,10.73
2023-04-16T07:21:50.800Z,10.27
2023-04-16T07:24:17.392Z,10.50
2023-04-16T07:26:43.777Z,9.65
2023-04-16T07:29:10.406Z,9.13
2023-04-16T07:31:37.056Z,8.63
2023-04-16T07:34:03.624Z,8.40
2023-04-16T07:36:30.042Z,7.35
2023-04-16T07:38:56.509Z,8.35
2023-04-16T07:41:22.992Z,7.00
2023-04-16T07:43:49.443Z,6.25
2023-04-16T07:46:16.250Z,6.25
2023-04-16T07:48:43.085Z,6.28
2023-04-16T07:51:09.475Z,6.63
2023-04-16T07:53:36.049Z,5.90
2023-04-16T07:56:02.484Z,6.30
2023-04-16T07:58:28.982Z,6.28
2023-04-16T08:00:55.548Z,5.88
2023-04-16T08:03:22.249Z,6.10
2023-04-16T08:05:48.832Z,6.22
2023-04-16T08:08:15.585Z,6.05
2023-04-16T08:10:42.151Z,5.63
2023-04-16T08:13:08.580Z,6.43
2023-04-16T08:15:35.121Z,5.70
2023-04-16T08:18:01.665Z,5.70
2023-04-16T08:20:28.260Z,6.15
2023-04-16T08:22:54.894Z,6.13
2023-04-16T08:25:23.552Z,5.70
2023-04-16T08:27:50.232Z,5.75
2023-04-16T08:30:16.719Z,6.18
2023-04-16T08:32:43.510Z,5.45
2023-04-16T08:35:10.010Z,5.22
2023-04-16T08:37:36.466Z,5.60
2023-04-16T08:40:03.486Z,6.13
2023-04-16T08:42:32.875Z,5.57
2023-04-16T08:45:17.891Z,5.22
2023-04-16T08:47:50.486Z,5.10
2023-04-16T08:50:19.408Z,5.47
2023-04-16T08:52:52.283Z,5.97
2023-04-16T08:55:23.468Z,5.03
2023-04-16T08:57:56.233Z,5.32
2023-04-16T09:00:23.822Z,5.43
2023-04-16T09:02:51.577Z,4.47
2023-04-16T09:05:19.057Z,4.45
2023-04-16T09:07:46.535Z,4.22
2023-04-16T09:10:14.760Z,4.10
2023-04-16T09:12:42.914Z,4.18
2023-04-16T09:15:13.313Z,4.80
2023-04-16T09:17:40.191Z,5.03
2023-04-16T09:20:11.213Z,4.18
2023-04-16T09:22:38.344Z,4.95
2023-04-16T09:25:05.080Z,5.18
2023-04-16T09:27:31.950Z,4.85
2023-04-16T09:29:58.634Z,4.20
2023-04-16T09:32:28.905Z,4.88
2023-04-16T09:35:00.094Z,5.40
2023-04-16T09:37:29.576Z,4.93
2023-04-16T09:40:00.804Z,5.05
2023-04-16T09:42:34.317Z,4.82
2023-04-16T09:45:03.354Z,4.75
2023-04-16T09:47:45.273Z,4.72
2023-04-16T09:50:18.167Z,5.68
2023-04-16T09:52:47.986Z,5.60
2023-04-16T09:55:14.490Z,5.82
2023-04-16T09:57:41.081Z,5.47
2023-04-16T10:00:09.500Z,6.88
2023-04-16T10:02:39.170Z,7.30
2023-04-16T10:07:37.160Z,5.90
2023-04-16T10:10:04.387Z,6.55
2023-04-16T10:12:32.622Z,7.13
2023-04-16T10:14:59.082Z,7.50
2023-04-16T10:17:26.696Z,6.28
2023-04-16T10:19:54.607Z,7.60
2023-04-16T10:22:21.377Z,7.80
2023-04-16T10:24:48.288Z,7.22
2023-04-16T10:27:14.741Z,8.27
2023-04-16T10:29:41.356Z,7.22
2023-04-16T10:32:08.040Z,8.48
2023-04-16T10:34:36.408Z,9.98
2023-04-16T10:37:02.828Z,9.93
2023-04-16T10:39:34.382Z,10.25
2023-04-16T10:42:11.924Z,10.35
2023-04-16T10:44:41.508Z,9.75
2023-04-16T10:47:12.325Z,9.63
2023-04-16T10:49:38.979Z,9.55
2023-04-16T10:52:13.690Z,10.85
2023-04-16T10:54:41.067Z,10.82
2023-04-16T10:57:09.682Z,10.25
2023-04-16T10:59:37.421Z,10.85
2023-04-16T11:02:09.682Z,10.07
2023-04-16T11:04:38.186Z,10.38
2023-04-16T11:07:07.456Z,11.05
2023-04-16T11:09:57.553Z,10.18
2023-04-16T11:12:38.778Z,9.52
2023-04-16T11:15:06.314Z,8.20
2023-04-16T11:17:37.638Z,8.45
2023-04-16T11:20:17.779Z,8.30
2023-04-16T11:22:51.175Z,7.60
2023-04-16T11:25:24.136Z,7.15
2023-04-16T11:27:53.858Z,7.00
2023-04-16T11:30:33.255Z,6.97
2023-04-16T11:33:08.496Z,6.78
2023-04-16T11:35:35.090Z,6.72
2023-04-16T11:38:01.602Z,6.85
2023-04-16T11:40:34.003Z,7.00
2023-04-16T11:43:18.615Z,6.70
2023-04-16T11:46:02.692Z,6.75
2023-04-16T11:48:55.395Z,6.72
2023-04-16T11:51:23.125Z,6.65
2023-04-16T11:53:53.475Z,7.30
2023-04-16T11:56:30.022Z,6.88
2023-04-16T11:59:12.582Z,7.35
2023-04-16T12:01:40.834Z,7.05
2023-04-16T12:04:08.106Z,7.63
2023-04-16T12:06:34.793Z,7.10
2023-04-16T12:09:25.030Z,7.85
2023-04-16T12:11:51.542Z,6.90
2023-04-16T12:14:18.049Z,7.45
2023-04-16T12:16:44.546Z,8.13
2023-04-16T12:19:12.955Z,6.75
2023-04-16T12:21:40.344Z,8.40
2023-04-16T12:24:08.200Z,7.97
2023-04-16T12:26:42.577Z,7.70
2023-04-16T12:29:20.507Z,8.18
2023-04-16T12:31:48.060Z,8.13
2023-04-16T12:34:17.494Z,7.80
2023-04-16T12:36:45.824Z,8.32
2023-04-16T12:39:13.058Z,8.48
2023-04-16T12:41:41.738Z,8.45
2023-04-16T12:44:12.463Z,9.55
2023-04-16T12:46:40.269Z,8.52
2023-04-16T12:49:07.539Z,8.60
2023-04-16T12:51:34.892Z,8.30
2023-04-16T12:54:02.252Z,9.05
2023-04-16T12:56:28.841Z,10.18
2023-04-16T12:58:56.609Z,10.13
2023-04-16T13:01:23.549Z,10.02
2023-04-16T13:03:50.142Z,9.93
2023-04-16T13:06:17.014Z,9.77
2023-04-16T13:08:44.533Z,10.13
2023-04-16T13:11:11.152Z,10.20
2023-04-16T13:13:37.609Z,10.43
2023-04-16T13:16:06.515Z,10.55
2023-04-16T13:18:33.283Z,10.68
2023-04-16T13:20:59.843Z,10.20
2023-04-16T13:23:27.013Z,10.55
2023-04-16T13:25:53.550Z,10.65
2023-04-16T13:28:20.072Z,10.85
2023-04-16T13:30:49.429Z,9.98
2023-04-16T13:33:15.941Z,10.23
2023-04-16T13:35:42.504Z,10.30
2023-04-16T13:38:09.294Z,10.43
2023-04-16T13:40:35.728Z,10.93
2023-04-16T13:43:02.195Z,10.27
2023-04-16T13:45:28.688Z,11.32
2023-04-16T13:47:56.069Z,10.65
2023-04-16T13:50:23.044Z,10.05
2023-04-16T13:52:49.448Z,9.93
2023-04-16T13:55:19.036Z,9.93
2023-04-16T13:57:47.410Z,9.27
2023-04-16T14:00:15.350Z,9.15
2023-04-16T14:02:42.779Z,8.90
2023-04-16T14:05:09.628Z,8.48
2023-04-16T14:07:37.204Z,9.02
2023-04-16T14:10:03.960Z,8.98
2023-04-16T14:12:31.597Z,8.50
2023-04-16T14:14:58.256Z,8.68
2023-04-16T14:17:24.738Z,8.57
2023-04-16T14:19:51.279Z,8.70
2023-04-16T14:22:18.242Z,9.20
2023-04-16T14:24:44.621Z,7.65
2023-04-16T14:27:11.267Z,9.20
2023-04-16T14:29:37.890Z,8.35
2023-04-16T14:32:04.734Z,7.90
2023-04-16T14:34:31.384Z,8.55
2023-04-16T14:36:57.783Z,8.68
2023-04-16T14:39:24.844Z,8.98
2023-04-16T14:41:51.293Z,8.93
2023-04-16T14:44:17.707Z,8.35
2023-04-16T14:46:44.732Z,8.50
2023-04-16T14:49:12.213Z,9.50
2023-04-16T14:51:39.041Z,8.70
2023-04-16T14:54:05.684Z,9.55
2023-04-16T14:56:32.165Z,9.85
2023-04-16T14:58:58.649Z,8.60
2023-04-16T15:01:25.181Z,8.48
2023-04-16T15:03:51.798Z,8.45
2023-04-16T15:06:19.032Z,8.80
2023-04-16T15:08:45.787Z,8.48
2023-04-16T15:11:12.229Z,8.70
2023-04-16T15:13:39.023Z,9.27
2023-04-16T15:16:05.522Z,8.93
2023-04-16T15:18:32.695Z,9.10
2023-04-16T15:20:59.353Z,9.10
2023-04-16T15:23:25.882Z,9.23
2023-04-16T15:25:52.260Z,9.45
2023-04-16T15:28:18.745Z,9.02
2023-04-16T15:30:45.340Z,9.95
2023-04-16T15:33:11.943Z,9.63
2023-04-16T15:35:41.357Z,9.82
2023-04-16T15:38:08.182Z,10.48
2023-04-16T15:40:35.520Z,9.23
2023-04-16T15:43:01.961Z,9.25
2023-04-16T15:45:28.459Z,10.18
2023-04-16T15:47:55.975Z,10.48
2023-04-16T15:50:22.717Z,11.38
2023-04-16T15:52:49.270Z,9.50
2023-04-16T15:55:16.701Z,10.07
2023-04-16T15:57:43.137Z,10.25
2023-04-16T16:00:16.119Z,10.18
2023-04-16T16:02:47.042Z,9.95
2023-04-16T16:05:14.259Z,10.05
2023-04-16T16:07:41.367Z,11.02
2023-04-16T16:10:09.232Z,10.07
2023-04-16T16:12:35.972Z,10.13
2023-04-16T16:15:02.422Z,11.13
2023-04-16T16:17:29.472Z,10.63
2023-04-16T16:19:57.608Z,11.75
2023-04-16T16:22:24.434Z,10.77
2023-04-16T16:24:51.423Z,11.02
2023-04-16T16:27:21.386Z,10.88
2023-04-16T16:29:48.004Z,10.25
2023-04-16T16:32:14.661Z,10.70
2023-04-16T16:34:41.138Z,10.38
2023-04-16T16:37:07.677Z,11.10
2023-04-16T16:39:35.214Z,10.52
2023-04-16T16:42:02.479Z,11.25
2023-04-16T16:44:29.047Z,12.20
2023-04-16T16:46:55.473Z,11.23
2023-04-16T16:49:21.862Z,11.00
2023-04-16T16:51:48.579Z,11.75
2023-04-16T16:54:15.429Z,11.45
2023-04-16T16:56:41.962Z,10.77
2023-04-16T16:59:09.001Z,12.15
2023-04-16T17:01:35.837Z,11.30
2023-04-16T17:04:02.646Z,11.10
2023-04-16T17:06:29.290Z,11.57
2023-04-16T17:08:55.837Z,10.95
2023-04-16T17:11:22.248Z,11.43
2023-04-16T17:13:48.775Z,10.70
2023-04-16T17:16:17.563Z,11.43
2023-04-16T17:18:44.196Z,11.25
2023-04-16T17:21:10.769Z,12.35
2023-04-16T17:23:37.971Z,11.57
2023-04-16T17:26:05.934Z,10.35
2023-04-16T17:28:32.403Z,11.02
2023-04-16T17:30:59.501Z,11.15
2023-04-16T17:33:26.034Z,11.63
2023-04-16T17:35:52.521Z,11.25
2023-04-16T17:38:18.993Z,11.68
2023-04-16T17:40:45.657Z,11.50
2023-04-16T17:43:12.107Z,12.20
2023-04-16T17:45:38.593Z,12.63
2023-04-16T17:48:05.610Z,12.40
2023-04-16T17:50:32.103Z,11.35
2023-04-16T17:53:03.484Z,12.25
2023-04-16T17:55:30.988Z,13.27
2023-04-16T17:57:57.448Z,12.73
2023-04-16T18:00:24.018Z,12.82
2023-04-16T18:02:52.326Z,12.60
2023-04-16T18:05:21.680Z,12.50
2023-04-16T18:07:48.339Z,12.90
2023-04-16T18:10:14.872Z,13.15
2023-04-16T18:12:41.384Z,14.85
2023-04-16T18:15:08.428Z,13.65
2023-04-16T18:17:35.095Z,14.07
2023-04-16T18:20:01.736Z,13.35
2023-04-16T18:22:28.525Z,14.23
2023-04-16T18:24:55.324Z,14.55
2023-04-16T18:27:21.954Z,14.38
2023-04-16T18:29:49.363Z,14.40
2023-04-16T18:32:16.387Z,14.25
2023-04-16T18:34:43.018Z,15.38
2023-04-16T18:37:09.579Z,14.40
2023-04-16T18:39:36.933Z,16.50
2023-04-16T18:42:03.959Z,15.40
2023-04-16T18:44:30.510Z,14.88
2023-04-16T18:46:57.112Z,14.65
2023-04-16T18:49:23.797Z,15.25
2023-04-16T18:51:50.296Z,15.02
2023-04-16T18:54:17.020Z,15.93
2023-04-16T18:56:43.479Z,16.65
2023-04-16T18:59:10.127Z,15.23
2023-04-16T19:01:36.823Z,15.75
2023-04-16T19:04:03.486Z,16.45
2023-04-16T19:06:30.047Z,16.05
2023-04-16T19:08:56.558Z,16.42
2023-04-16T19:11:22.984Z,16.00
2023-04-16T19:13:49.430Z,15.93
2023-04-16T19:16:16.913Z,16.42
2023-04-16T19:18:43.477Z,15.48
2023-04-16T19:21:10.899Z,14.85
2023-04-16T19:23:37.482Z,15.95
2023-04-16T19:26:04.065Z,15.50
2023-04-16T19:28:30.702Z,15.52
2023-04-16T19:30:57.234Z,16.08
2023-04-16T19:33:23.732Z,15.27
2023-04-16T19:35:50.371Z,15.75
2023-04-16T19:38:16.950Z,14.55
2023-04-16T19:40:48.211Z,14.80
2023-04-16T19:43:14.963Z,16.10
2023-04-16T19:45:53.263Z,15.85
2023-04-16T19:48:20.718Z,16.58
2023-04-16T19:50:47.866Z,16.83
2023-04-16T19:53:14.450Z,16.45
2023-04-16T19:55:41.302Z,15.10
2023-04-16T19:58:08.433Z,16.42
2023-04-16T20:00:36.848Z,15.98
2023-04-16T20:03:03.982Z,16.08
2023-04-16T20:05:30.631Z,16.20
2023-04-16T20:07:57.068Z,16.17
2023-04-16T20:10:24.136Z,16.38
2023-04-16T20:12:50.896Z,16.60
2023-04-16T20:15:17.861Z,18.15
2023-04-16T20:17:44.343Z,18.10
2023-04-16T20:20:11.367Z,18.02
2023-04-16T20:22:38.324Z,17.05
2023-04-16T20:25:05.595Z,16.52
2023-04-16T20:27:32.667Z,17.80
2023-04-16T20:29:59.697Z,16.70
2023-04-16T20:32:27.633Z,17.48
2023-04-16T20:34:55.240Z,17.13
2023-04-16T20:37:21.714Z,18.17
2023-04-16T20:39:50.029Z,17.73
2023-04-16T20:42:16.805Z,18.30
2023-04-16T20:44:50.074Z,17.48
2023-04-16T20:47:17.232Z,18.40
2023-04-16T20:49:49.342Z,18.40
2023-04-16T20:52:16.558Z,17.48
2023-04-16T20:54:42.983Z,17.13
2023-04-16T20:57:09.493Z,17.35
2023-04-16T20:59:38.810Z,17.65
2023-04-16T21:02:05.813Z,16.65
2023-04-16T21:04:32.334Z,17.08
2023-04-16T21:06:58.817Z,17.13
2023-04-16T21:09:25.365Z,17.40
2023-04-16T21:11:51.796Z,17.75
2023-04-16T21:14:18.518Z,16.88
2023-04-16T21:16:44.979Z,16.38
2023-04-16T21:19:11.663Z,17.58
2023-04-16T21:21:38.850Z,15.95
2023-04-16T21:24:05.627Z,16.95
2023-04-16T21:26:32.065Z,15.85
2023-04-16T21:28:58.520Z,17.05
2023-04-16T21:31:25.008Z,17.30
2023-04-16T21:33:51.445Z,16.02
2023-04-16T21:36:17.888Z,16.77
2023-04-16T21:38:44.429Z,16.67
2023-04-16T21:41:11.291Z,16.60
2023-04-16T21:43:37.737Z,17.23
2023-04-16T21:46:04.188Z,16.80
2023-04-16T21:48:30.596Z,16.60
2023-04-16T21:50:58.162Z,16.73
2023-04-16T21:53:25.904Z,16.10
2023-04-16T21:55:52.406Z,18.58
2023-04-16T21:58:18.894Z,16.52
2023-04-16T22:00:45.534Z,17.42
2023-04-16T22:03:12.400Z,17.65
2023-04-16T22:05:39.091Z,18.00
2023-04-16T22:08:20.871Z,16.90
2023-04-16T22:10:50.369Z,17.98
2023-04-16T22:13:17.771Z,16.92
2023-04-16T22:15:44.176Z,16.90
2023-04-16T22:18:11.456Z,16.67
2023-04-16T22:20:39.112Z,16.80
2023-04-16T22:23:06.553Z,17.85
2023-04-16T22:25:33.404Z,17.70
2023-04-16T22:28:01.462Z,17.13
2023-04-16T22:30:28.013Z,18.17
2023-04-16T22:32:54.537Z,18.05
2023-04-16T22:35:21.031Z,19.33
2023-04-16T22:37:47.469Z,18.30
2023-04-16T22:40:14.923Z,18.95
2023-04-16T22:42:41.520Z,17.75
2023-04-16T22:45:08.801Z,18.63
2023-04-16T22:47:35.295Z,17.50
2023-04-16T22:50:01.776Z,19.20
2023-04-16T22:52:28.294Z,17.58
2023-04-16T22:54:54.725Z,17.55
2023-04-16T22:57:24.673Z,17.13
2023-04-16T23:02:18.480Z,15.90
2023-04-16T23:04:46.212Z,16.63
2023-04-16T23:07:12.683Z,17.42
2023-04-16T23:09:39.126Z,16.45
2023-04-16T23:12:05.830Z,18.60
2023-04-16T23:14:32.318Z,17.75
2023-04-16T23:16:58.699Z,16.45
2023-04-16T23:19:25.227Z,18.48
2023-04-16T23:21:51.832Z,16.42
2023-04-16T23:24:18.236Z,16.42
2023-04-16T23:26:44.695Z,15.77
2023-04-16T23:29:11.396Z,14.88
2023-04-16T23:31:37.988Z,15.88
2023-04-16T23:34:04.456Z,15.30
2023-04-16T23:36:31.064Z,17.92
2023-04-16T23:38:57.531Z,16.92
2023-04-16T23:41:24.008Z,16.25
2023-04-16T23:43:50.671Z,17.10
2023-04-16T23:46:17.157Z,15.70
2023-04-16T23:48:43.580Z,16.55
2023-04-16T23:51:09.999Z,17.30
2023-04-16T23:53:36.759Z,17.27
2023-04-16T23:56:03.266Z,16.33
2023-04-16T23:58:29.657Z,16.65
